Time;durP1;ratioP1;P1;durP2;ratioP2;P2;SDS_P1;SDS_P2;PMS_P1;PMS_P2;Temp;Humidity;BMP_temperature;BMP_pressure;BME280_temperature;BME280_humidity;BME280_pressure;Samples;Min_cycle;Max_cycle;Signal;HPM_P1;HPM_P2
2023/10/23 00:00:57;;;;;;;4.37;1.43;;;;;;;10.71;76.96;98959.38;7208878;40;20700;31
2023/10/23 00:06:33;;;;;;;2.70;1.20;;;;;;;10.51;77.23;98955.41;7207801;40;20258;31
2023/10/23 00:12:09;;;;;;;5.27;1.90;;;;;;;10.17;77.71;98958.34;7187873;40;20719;31
2023/10/23 00:17:29;;;;;;;5.97;1.70;;;;;;;9.99;78.27;98959.47;7194167;40;20253;31
2023/10/23 00:23:04;;;;;;;2.60;1.40;;;;;;;10.02;78.04;98970.75;7205479;40;20253;31
2023/10/23 00:28:25;;;;;;;4.50;1.40;;;;;;;9.82;77.52;98970.25;7209090;40;20249;31
2023/10/23 00:33:59;;;;;;;6.05;1.70;;;;;;;9.66;77.99;98964.00;7206400;40;20302;31
2023/10/23 00:39:35;;;;;;;4.50;1.62;;;;;;;9.52;78.49;98952.88;7202711;40;20257;31
2023/10/23 00:44:56;;;;;;;6.67;1.70;;;;;;;9.59;78.98;98966.53;7183217;40;21457;31
2023/10/23 00:50:31;;;;;;;5.20;1.70;;;;;;;9.60;79.22;98965.53;7278118;39;20251;31
2023/10/23 00:56:07;;;;;;;4.55;1.60;;;;;;;9.58;79.54;98956.75;7259240;40;20754;31
2023/10/23 01:01:42;;;;;;;3.13;1.40;;;;;;;9.56;80.32;98948.03;7269863;40;20619;31
2023/10/23 01:07:17;;;;;;;3.80;1.50;;;;;;;9.55;80.89;98940.97;7236312;40;20263;31
2023/10/23 01:12:54;;;;;;;4.00;1.40;;;;;;;9.48;80.39;98934.53;7266725;39;20329;31
2023/10/23 01:18:29;;;;;;;4.05;1.50;;;;;;;9.37;81.15;98948.31;7227529;40;20335;31
2023/10/23 01:24:04;;;;;;;5.85;1.65;;;;;;;9.27;82.42;98936.88;7186397;40;20425;31
2023/10/23 01:29:39;;;;;;;9.05;1.90;;;;;;;9.38;82.57;98933.87;7191157;40;20864;31
2023/10/23 01:35:14;;;;;;;6.30;1.60;;;;;;;9.36;82.17;98936.72;7251446;40;20549;31
2023/10/23 01:40:33;;;;;;;5.30;1.50;;;;;;;9.36;82.27;98933.19;7250618;40;20255;31
2023/10/23 01:46:10;;;;;;;4.50;1.60;;;;;;;9.41;82.94;98930.84;7261507;40;20382;31
2023/10/23 01:51:45;;;;;;;4.90;1.60;;;;;;;9.51;82.27;98936.91;7217441;40;22093;31
2023/10/23 01:57:05;;;;;;;5.13;1.53;;;;;;;9.46;82.70;98941.94;7160635;40;20243;31
2023/10/23 02:02:41;;;;;;;6.43;1.57;;;;;;;9.41;83.02;98934.37;7176758;40;20777;31
2023/10/23 02:08:18;;;;;;;6.30;1.70;;;;;;;9.41;82.72;98925.47;7238240;40;20742;31
2023/10/23 02:13:52;;;;;;;4.35;1.60;;;;;;;9.36;82.84;98931.34;7268021;40;20245;31
2023/10/23 02:19:29;;;;;;;5.10;1.80;;;;;;;9.21;83.21;98929.47;7239577;40;20323;31
2023/10/23 02:24:50;;;;;;;5.47;1.77;;;;;;;9.22;82.49;98933.81;7246886;40;20247;31
2023/10/23 02:30:26;;;;;;;5.73;1.70;;;;;;;9.12;82.84;98933.16;7265646;40;20329;31
2023/10/23 02:36:02;;;;;;;5.55;1.83;;;;;;;8.89;83.06;98923.00;7271440;39;20262;31
2023/10/23 02:41:38;;;;;;;4.80;1.77;;;;;;;8.89;83.41;98928.38;7254666;40;20249;31
2023/10/23 02:46:57;;;;;;;4.10;1.67;;;;;;;9.00;83.21;98930.75;7215042;40;20554;31
2023/10/23 02:52:33;;;;;;;4.53;1.60;;;;;;;9.12;82.41;98931.31;7197759;40;20823;31
2023/10/23 02:58:09;;;;;;;4.30;1.40;;;;;;;9.47;81.72;98949.87;6969002;40;20233;31
2023/10/23 03:03:30;;;;;;;7.43;1.97;;;;;;;9.80;81.67;98948.03;7197848;40;20249;31
2023/10/23 03:09:07;;;;;;;5.63;1.70;;;;;;;9.93;81.22;98944.84;7237945;40;20697;31
2023/10/23 03:14:27;;;;;;;5.10;2.30;;;;;;;9.94;80.72;98951.91;7225797;40;20715;31
2023/10/23 03:20:02;;;;;;;6.47;1.93;;;;;;;9.62;80.06;98944.66;7263600;40;20774;31
2023/10/23 03:25:38;;;;;;;4.83;1.93;;;;;;;9.25;80.33;98933.50;7247169;40;20805;31
2023/10/23 03:31:15;;;;;;;5.25;1.80;;;;;;;9.06;81.00;98940.00;7204804;40;20904;31
2023/10/23 03:36:51;;;;;;;5.30;1.80;;;;;;;9.02;80.64;98950.25;7220164;40;20238;31
2023/10/23 03:42:28;;;;;;;7.65;2.20;;;;;;;8.77;82.05;98948.47;7199197;40;20334;31
2023/10/23 03:48:03;;;;;;;6.10;1.83;;;;;;;8.79;80.83;98945.62;7216053;40;20270;31
2023/10/23 03:53:23;;;;;;;4.33;1.80;;;;;;;8.97;81.33;98941.84;7194696;40;20332;31
2023/10/23 04:04:04;;;;;;;5.50;1.43;;;;;;;8.65;80.90;98924.72;7213697;40;20274;31
2023/10/23 04:14:43;;;;;;;4.80;1.37;;;;;;;8.83;80.93;98918.25;7269669;39;20272;31
2023/10/23 04:25:24;;;;;;;5.00;1.70;;;;;;;8.65;81.46;98913.97;7357206;39;20285;31
2023/10/23 04:36:04;;;;;;;4.53;1.77;;;;;;;8.50;83.62;98924.50;7319056;39;20263;31
2023/10/23 04:41:40;;;;;;;6.43;1.80;;;;;;;8.41;85.16;98906.66;7257813;40;20264;31
2023/10/23 04:52:20;;;;;;;8.15;2.00;;;;;;;8.53;84.71;98916.97;7204505;40;20292;31
2023/10/23 04:57:57;;;;;;;6.50;2.10;;;;;;;8.68;82.74;98905.63;7231200;40;20366;31
2023/10/23 05:03:18;;;;;;;6.50;2.40;;;;;;;8.74;82.05;98911.16;7285697;39;20251;31
2023/10/23 05:08:53;;;;;;;10.33;2.03;;;;;;;8.64;82.78;98918.53;7277936;40;20879;31
2023/10/23 05:14:29;;;;;;;4.30;1.77;;;;;;;8.48;82.27;98913.06;7238672;40;20272;31
2023/10/23 05:20:04;;;;;;;8.90;2.10;;;;;;;8.33;82.83;98898.56;7232923;40;20238;31
2023/10/23 05:25:24;;;;;;;5.87;2.20;;;;;;;8.27;83.60;98904.53;7209187;40;20287;31
2023/10/23 05:31:01;;;;;;;8.75;2.15;;;;;;;8.26;83.75;98894.78;7235105;40;20237;31
2023/10/23 05:36:36;;;;;;;5.50;2.00;;;;;;;8.26;85.15;98886.72;7239023;40;20696;31
2023/10/23 05:41:57;;;;;;;6.07;1.77;;;;;;;8.28;85.00;98895.47;7197502;40;20251;31
2023/10/23 05:47:30;;;;;;;6.25;1.95;;;;;;;8.34;83.35;98894.84;7225204;40;20261;31
2023/10/23 05:53:05;;;;;;;3.60;2.03;;;;;;;8.22;84.43;98901.47;7187600;40;20441;31
2023/10/23 06:03:45;;;;;;;5.15;1.90;;;;;;;8.30;85.96;98909.59;7237262;40;20279;31
2023/10/23 06:14:24;;;;;;;8.87;2.30;;;;;;;8.63;85.41;98916.84;7259304;39;20260;31
2023/10/23 06:20:02;;;;;;;9.37;2.30;;;;;;;8.62;87.18;98903.56;7299723;40;20264;31
2023/10/23 06:25:37;;;;;;;4.90;2.60;;;;;;;8.70;86.99;98900.91;7240361;40;20326;31
2023/10/23 06:31:12;;;;;;;6.80;2.50;;;;;;;8.59;87.56;98892.16;7219039;40;20254;31
2023/10/23 06:36:48;;;;;;;6.70;2.60;;;;;;;8.55;88.45;98911.44;7185299;40;20344;31
2023/10/23 06:42:09;;;;;;;7.40;2.80;;;;;;;8.54;89.32;98917.81;7169105;40;20302;31
2023/10/23 06:47:29;;;;;;;7.55;3.05;;;;;;;8.55;89.79;98927.56;7204222;40;20252;31
2023/10/23 06:53:04;;;;;;;8.00;3.80;;;;;;;8.60;91.51;98930.56;7265368;40;20377;31
2023/10/23 06:58:40;;;;;;;9.80;3.40;;;;;;;8.77;89.83;98918.94;7270474;40;20436;31
2023/10/23 07:04:15;;;;;;;7.07;3.43;;;;;;;8.95;89.51;98908.88;7263209;40;20249;31
2023/10/23 07:09:53;;;;;;;9.90;3.33;;;;;;;8.96;89.67;98918.63;7308813;39;20276;31
2023/10/23 07:20:17;;;;;;;7.13;3.60;;;;;;;9.16;89.44;98915.69;7273834;40;20273;31
2023/10/23 07:25:53;;;;;;;7.75;3.70;;;;;;;9.24;89.46;98902.25;7296786;39;20320;31
2023/10/23 07:31:28;;;;;;;8.37;3.60;;;;;;;9.46;89.36;98898.91;7285739;40;20315;31
2023/10/23 07:36:47;;;;;;;11.07;3.77;;;;;;;9.63;89.14;98884.47;7278899;40;20245;31
2023/10/23 07:42:22;;;;;;;6.73;3.37;;;;;;;9.69;90.42;98885.63;7277190;40;20256;31
2023/10/23 07:47:57;;;;;;;6.60;3.63;;;;;;;9.79;90.00;98884.44;7287250;39;20252;31
2023/10/23 07:53:35;;;;;;;7.97;3.73;;;;;;;9.95;88.32;98887.13;7298577;40;20241;31
2023/10/23 07:59:09;;;;;;;8.50;3.90;;;;;;;10.11;88.94;98877.34;7273998;40;20272;31
2023/10/23 08:04:47;;;;;;;6.73;3.50;;;;;;;10.13;89.38;98869.94;7179107;40;20243;31
2023/10/23 08:10:21;;;;;;;7.35;3.50;;;;;;;10.23;88.81;98887.59;7163619;40;20346;31
2023/10/23 08:15:59;;;;;;;11.00;3.80;;;;;;;10.33;88.57;98890.94;7170441;40;20261;31
2023/10/23 08:21:34;;;;;;;10.77;4.10;;;;;;;10.44;89.03;98872.75;7168779;40;20340;31
2023/10/23 08:27:09;;;;;;;10.07;3.87;;;;;;;10.50;89.02;98859.41;7206458;40;20362;31
2023/10/23 08:32:46;;;;;;;10.40;3.70;;;;;;;10.64;88.77;98858.69;7217498;40;20278;31
2023/10/23 08:38:06;;;;;;;7.67;3.80;;;;;;;10.77;88.16;98877.81;7170278;40;20262;31
2023/10/23 08:43:41;;;;;;;7.50;3.80;;;;;;;10.85;88.01;98867.00;7167883;40;20243;31
2023/10/23 08:49:18;;;;;;;6.67;3.43;;;;;;;10.86;87.59;98859.75;7165295;40;20416;31
2023/10/23 08:54:54;;;;;;;7.77;3.77;;;;;;;10.88;87.51;98857.72;7178485;40;20257;31
2023/10/23 09:00:30;;;;;;;11.25;4.25;;;;;;;10.91;87.85;98859.22;7189928;40;20257;31
2023/10/23 09:06:06;;;;;;;13.20;4.25;;;;;;;10.95;87.26;98856.00;7208338;40;20261;31
2023/10/23 09:11:44;;;;;;;8.23;3.53;;;;;;;11.03;86.83;98864.03;7170781;40;20483;31
2023/10/23 09:17:04;;;;;;;7.53;3.40;;;;;;;11.13;86.92;98855.72;7221401;40;20277;31
2023/10/23 09:22:47;;;;;;;8.80;3.83;;;;;;;11.22;86.11;98850.09;7264644;40;20268;31
2023/10/23 09:28:22;;;;;;;6.60;3.10;;;;;;;11.35;85.27;98836.00;7256056;40;20314;31
2023/10/23 09:33:54;;;;;;;10.90;3.10;;;;;;;11.42;85.35;98842.34;7216032;40;20285;31
2023/10/23 09:39:32;;;;;;;7.27;2.90;;;;;;;11.46;84.77;98832.84;7208048;40;20298;31
2023/10/23 09:45:08;;;;;;;5.23;2.83;;;;;;;11.49;85.12;98837.06;7136201;40;20357;31
2023/10/23 09:50:41;;;;;;;7.37;3.10;;;;;;;11.50;85.21;98841.44;6953261;40;20244;31
2023/10/23 09:56:19;;;;;;;10.80;3.30;;;;;;;11.62;83.92;98840.84;7127535;40;20244;31
2023/10/23 10:01:55;;;;;;;6.60;3.40;;;;;;;11.70;84.18;98829.13;7161523;40;20301;31
2023/10/23 10:07:31;;;;;;;8.90;3.77;;;;;;;11.71;83.91;98820.84;7160094;40;20254;31
2023/10/23 10:13:09;;;;;;;8.87;3.43;;;;;;;11.70;83.71;98811.06;7211881;40;20259;31
2023/10/23 10:18:44;;;;;;;8.83;3.10;;;;;;;11.74;82.92;98804.31;7258796;40;21298;31
2023/10/23 10:24:19;;;;;;;8.30;3.70;;;;;;;11.80;83.13;98800.03;7220230;40;20246;31
2023/10/23 10:29:55;;;;;;;5.60;3.10;;;;;;;11.85;83.34;98786.00;7230440;40;20368;31
2023/10/23 10:35:40;;;;;;;4.70;2.90;;;;;;;11.93;82.17;98780.50;7257385;40;20378;31
2023/10/23 10:41:15;;;;;;;6.23;3.07;;;;;;;11.94;82.68;98777.59;7259109;39;20250;31
2023/10/23 10:51:56;;;;;;;4.10;2.45;;;;;;;12.06;82.17;98765.31;7266735;39;20276;31
2023/10/23 10:57:32;;;;;;;6.63;3.00;;;;;;;12.13;81.53;98755.44;7244217;40;20378;31
2023/10/23 11:08:13;;;;;;;7.50;3.03;;;;;;;12.15;80.85;98709.31;7315310;39;20262;31
2023/10/23 11:18:53;;;;;;;6.50;3.25;;;;;;;12.15;81.38;98688.53;7326387;39;20332;31
2023/10/23 11:29:34;;;;;;;8.00;3.40;;;;;;;12.40;81.14;98689.03;7302282;39;20276;31
2023/10/23 11:35:14;;;;;;;7.15;3.00;;;;;;;12.50;81.27;98676.06;7258620;40;20354;31
2023/10/23 11:41:05;;;;;;;6.37;3.00;;;;;;;12.51;80.26;98661.50;7200431;40;20375;31
2023/10/23 11:51:46;;;;;;;7.40;3.30;;;;;;;12.56;80.23;98644.69;7212140;40;20337;31
2023/10/23 11:57:21;;;;;;;10.73;3.50;;;;;;;12.59;80.17;98657.84;7203361;40;20265;31
2023/10/23 12:02:56;;;;;;;7.13;3.17;;;;;;;12.61;80.23;98688.22;7206742;40;20238;31
2023/10/23 12:08:33;;;;;;;8.73;3.50;;;;;;;12.60;80.50;98670.31;7229869;40;20362;31
2023/10/23 12:14:09;;;;;;;6.23;3.73;;;;;;;12.56;80.65;98644.69;7186986;40;20324;31
2023/10/23 12:19:29;;;;;;;7.23;3.77;;;;;;;12.61;81.17;98645.81;7166210;40;20255;31
2023/10/23 12:25:05;;;;;;;8.10;3.80;;;;;;;12.67;81.55;98633.38;7168804;40;20293;31
2023/10/23 12:30:27;;;;;;;8.20;3.90;;;;;;;12.79;81.53;98625.56;7223202;40;20724;31
2023/10/23 12:36:03;;;;;;;8.85;3.40;;;;;;;12.79;81.51;98621.00;7266908;40;20264;31
2023/10/23 12:41:37;;;;;;;8.87;3.80;;;;;;;12.67;82.10;98617.16;7222000;40;20332;31
2023/10/23 12:46:59;;;;;;;8.90;3.67;;;;;;;12.63;81.54;98591.53;7175674;40;20246;31
2023/10/23 12:52:33;;;;;;;8.17;3.77;;;;;;;12.69;81.94;98576.37;7216874;40;20257;31
2023/10/23 12:58:08;;;;;;;8.20;3.70;;;;;;;12.72;81.73;98563.34;7207489;40;20266;31
2023/10/23 13:03:29;;;;;;;7.05;3.70;;;;;;;12.78;82.08;98554.41;7206728;40;20245;31
2023/10/23 13:09:04;;;;;;;5.97;3.63;;;;;;;12.73;81.62;98545.22;7247758;40;20717;31
2023/10/23 13:14:40;;;;;;;8.40;3.60;;;;;;;12.78;82.33;98523.84;7160801;40;20764;31
2023/10/23 13:20:06;;;;;;;7.27;3.27;;;;;;;12.79;81.74;98512.00;7172310;40;20273;31
2023/10/23 13:30:43;;;;;;;6.10;3.20;;;;;;;12.68;83.20;98464.69;7267953;39;20271;31
2023/10/23 13:41:21;;;;;;;5.50;2.80;;;;;;;12.47;84.49;98422.34;7336390;39;20615;31
2023/10/23 13:52:03;;;;;;;7.17;4.00;;;;;;;12.50;85.75;98427.38;7311586;39;20283;31
2023/10/23 14:02:25;;;;;;;5.80;3.47;;;;;;;12.48;86.71;98437.53;7344648;39;20271;31
2023/10/23 14:08:01;;;;;;;6.10;3.60;;;;;;;12.49;87.71;98424.88;7337391;39;20303;31
2023/10/23 14:18:26;;;;;;;9.60;3.87;;;;;;;12.52;87.22;98370.41;7297476;39;20261;31
2023/10/23 14:24:02;;;;;;;6.20;3.90;;;;;;;12.46;88.53;98385.53;7305085;39;20256;31
2023/10/23 14:29:21;;;;;;;6.77;3.67;;;;;;;12.58;88.21;98385.84;7286447;39;20253;31
2023/10/23 14:34:56;;;;;;;6.50;3.95;;;;;;;12.68;88.21;98386.28;7316974;39;20239;31
2023/10/23 14:40:30;;;;;;;6.95;4.00;;;;;;;12.68;88.62;98380.88;7277394;40;20261;31
2023/10/23 14:45:51;;;;;;;9.40;4.40;;;;;;;12.67;89.21;98373.81;7247377;40;20249;31
2023/10/23 14:51:12;;;;;;;12.25;4.40;;;;;;;12.70;89.44;98373.41;7238681;40;20219;31
2023/10/23 14:56:49;;;;;;;8.33;4.30;;;;;;;12.69;89.33;98366.31;7253949;40;20381;31
2023/10/23 15:02:09;;;;;;;8.40;4.70;;;;;;;12.70;89.57;98359.88;7242179;40;20260;31
2023/10/23 15:07:29;;;;;;;7.90;4.80;;;;;;;12.74;88.77;98333.28;7250884;40;20385;31
2023/10/23 15:13:06;;;;;;;8.57;4.57;;;;;;;12.68;89.74;98291.66;7298058;39;20297;31
2023/10/23 15:18:41;;;;;;;8.75;4.85;;;;;;;12.62;90.50;98285.19;7217299;40;20268;31
2023/10/23 15:24:16;;;;;;;8.27;4.47;;;;;;;12.59;90.73;98280.19;7190713;40;20257;31
2023/10/23 15:29:52;;;;;;;8.00;5.03;;;;;;;12.55;90.13;98284.31;7256719;40;20283;31
2023/10/23 15:40:17;;;;;;;10.53;5.10;;;;;;;12.65;90.30;98284.78;7205142;40;20261;31
2023/10/23 15:50:58;;;;;;;8.73;5.07;;;;;;;12.64;89.47;98315.56;7323912;39;20249;31
2023/10/23 15:56:33;;;;;;;8.80;4.05;;;;;;;12.69;90.19;98303.31;7261317;40;20261;31
2023/10/23 16:02:10;;;;;;;8.00;4.50;;;;;;;12.64;90.37;98304.75;7304937;39;20520;31
2023/10/23 16:07:44;;;;;;;7.50;4.30;;;;;;;12.60;90.74;98279.16;7249216;40;20237;31
2023/10/23 16:13:17;;;;;;;10.27;4.53;;;;;;;12.67;91.14;98294.56;7279259;39;20268;31
2023/10/23 16:18:52;;;;;;;;;;;;;;;12.69;90.81;98287.06;7257662;40;20250;31
2023/10/23 16:24:28;;;;;;;5.67;4.07;;;;;;;12.65;91.34;98298.31;7186977;40;20365;31
2023/10/23 16:29:48;;;;;;;6.20;3.77;;;;;;;12.70;91.58;98296.88;7195666;40;20262;31
2023/10/23 16:35:24;;;;;;;6.70;4.00;;;;;;;12.70;91.41;98300.41;7226893;40;20265;31
2023/10/23 16:40:59;;;;;;;6.77;5.43;;;;;;;12.68;90.53;98315.19;7197040;40;20254;31
2023/10/23 16:46:34;;;;;;;7.83;4.70;;;;;;;12.72;91.12;98316.44;7246678;40;20277;31
2023/10/23 16:52:09;;;;;;;6.30;4.10;;;;;;;12.74;91.03;98319.75;7226749;40;20277;31
2023/10/23 16:57:43;;;;;;;7.17;4.37;;;;;;;12.77;90.73;98320.19;6996251;40;21203;31
2023/10/23 17:03:18;;;;;;;6.95;4.00;;;;;;;12.77;90.48;98316.66;7193189;40;20238;31
2023/10/23 17:08:38;;;;;;;8.40;4.20;;;;;;;12.79;90.95;98325.41;7208147;40;20286;31
2023/10/23 17:14:15;;;;;;;6.80;4.50;;;;;;;12.76;90.74;98325.81;7238849;40;20293;31
2023/10/23 17:19:37;;;;;;;7.50;4.60;;;;;;;12.78;91.76;98331.84;7283893;39;20260;31
2023/10/23 17:24:55;;;;;;;7.40;4.50;;;;;;;12.74;92.13;98314.34;7306572;39;20264;31
2023/10/23 17:30:32;;;;;;;6.10;4.15;;;;;;;12.69;92.68;98338.44;7314995;39;20236;31
2023/10/23 17:36:08;;;;;;;7.70;4.40;;;;;;;12.69;91.60;98363.63;7285513;39;20238;31
2023/10/23 17:41:43;;;;;;;6.20;4.03;;;;;;;12.74;92.26;98369.28;7253868;40;20242;31
2023/10/23 17:47:19;;;;;;;7.27;4.40;;;;;;;12.72;92.06;98379.47;7197224;40;20241;31
2023/10/23 17:52:43;;;;;;;8.03;4.27;;;;;;;12.78;92.69;98392.16;7127887;40;20318;31
2023/10/23 17:58:00;;;;;;;10.57;4.10;;;;;;;12.79;92.40;98384.91;7175617;40;20352;31
2023/10/23 18:03:36;;;;;;;7.07;4.27;;;;;;;12.71;94.28;98377.78;7277483;40;20813;31
2023/10/23 18:14:16;;;;;;;7.50;4.07;;;;;;;12.82;93.06;98393.44;7353908;39;20255;31
2023/10/23 18:19:50;;;;;;;4.63;3.87;;;;;;;12.84;92.66;98364.34;7292757;39;20238;31
2023/10/23 18:25:10;;;;;;;6.90;4.37;;;;;;;12.85;92.93;98394.91;7272625;39;20240;31
2023/10/23 18:30:47;;;;;;;9.70;4.37;;;;;;;12.82;93.11;98384.47;7297342;39;20255;31
2023/10/23 18:36:31;;;;;;;6.80;4.10;;;;;;;12.85;92.75;98366.00;7275732;40;20261;31
2023/10/23 18:42:07;;;;;;;7.40;4.60;;;;;;;12.87;93.56;98353.09;7267187;39;20297;31
2023/10/23 18:47:26;;;;;;;6.80;4.93;;;;;;;12.82;94.39;98389.88;7298638;39;20312;31
2023/10/23 18:53:00;;;;;;;5.47;3.87;;;;;;;12.81;93.64;98390.94;7288070;39;21486;31
2023/10/23 18:58:15;;;;;;;7.07;4.97;;;;;;;12.91;93.05;98337.28;7195983;40;20332;31
2023/10/23 19:03:50;;;;;;;6.60;4.73;;;;;;;12.85;93.93;98321.91;7292739;39;20350;31
2023/10/23 19:09:26;;;;;;;7.83;5.00;;;;;;;12.84;93.26;98348.09;7253111;40;20258;31
2023/10/23 19:14:46;;;;;;;6.30;4.50;;;;;;;12.93;93.90;98319.00;7224850;40;20241;31
2023/10/23 19:20:19;;;;;;;6.55;4.70;;;;;;;12.82;94.89;98296.06;7253361;40;20374;31
2023/10/23 19:25:55;;;;;;;9.00;5.37;;;;;;;12.82;94.61;98319.56;7218035;40;20254;31
2023/10/23 19:31:31;;;;;;;11.75;5.30;;;;;;;12.84;93.76;98293.19;7220578;40;20284;31
2023/10/23 19:37:06;;;;;;;5.10;4.40;;;;;;;12.86;94.15;98281.09;7256556;40;20468;31
2023/10/23 19:47:47;;;;;;;7.40;5.03;;;;;;;12.85;93.19;98328.16;7312552;39;20265;31
2023/10/23 19:58:26;;;;;;;7.70;5.30;;;;;;;12.88;94.63;98300.69;7356958;39;20289;31
2023/10/23 20:09:06;;;;;;;7.43;4.95;;;;;;;12.90;93.91;98297.78;7305500;39;20260;31
2023/10/23 20:14:27;;;;;;;9.13;5.60;;;;;;;12.85;95.26;98311.09;7294068;39;20376;31
2023/10/23 20:20:03;;;;;;;8.70;5.45;;;;;;;12.78;94.49;98316.44;7303964;39;20268;31
2023/10/23 20:25:38;;;;;;;6.53;5.37;;;;;;;12.81;94.55;98296.31;7294485;39;20248;31
2023/10/23 20:31:13;;;;;;;8.15;6.05;;;;;;;12.86;93.98;98296.50;7244268;40;20327;31
2023/10/23 20:36:34;;;;;;;7.55;5.70;;;;;;;12.81;95.10;98299.00;7207223;40;20257;31
2023/10/23 20:42:11;;;;;;;7.80;6.00;;;;;;;12.81;94.59;98290.88;7267116;39;20354;31
2023/10/23 20:47:47;;;;;;;10.97;6.20;;;;;;;12.80;94.52;98292.75;7257539;40;20267;31
2023/10/23 20:53:21;;;;;;;9.10;6.80;;;;;;;12.85;94.39;98281.34;7229970;40;20258;31
2023/10/23 20:58:59;;;;;;;10.18;7.25;;;;;;;12.83;95.01;98305.88;7217389;40;20409;31
2023/10/23 21:04:18;;;;;;;8.33;7.27;;;;;;;12.88;95.06;98289.88;7227256;40;20261;31
2023/10/23 21:09:38;;;;;;;10.75;7.55;;;;;;;12.91;94.02;98269.69;7247597;40;20330;31
2023/10/23 21:15:11;;;;;;;11.20;7.40;;;;;;;12.86;93.76;98242.41;7257063;40;20242;31
2023/10/23 21:20:46;;;;;;;8.33;6.90;;;;;;;12.82;94.74;98231.16;7245577;40;20237;31
2023/10/23 21:26:20;;;;;;;8.70;7.20;;;;;;;12.75;94.49;98222.22;7276479;40;20346;31
2023/10/23 21:31:57;;;;;;;6.93;6.13;;;;;;;12.71;93.58;98220.97;7237947;40;20245;31
2023/10/23 21:37:32;;;;;;;8.00;6.50;;;;;;;12.71;93.56;98207.44;7257932;40;20268;31
2023/10/23 21:43:07;;;;;;;6.83;6.17;;;;;;;12.65;93.69;98224.47;7236606;40;20290;31
2023/10/23 21:48:44;;;;;;;6.95;5.85;;;;;;;12.61;93.09;98237.56;7223337;40;21391;31
2023/10/23 21:54:17;;;;;;;9.70;7.00;;;;;;;12.50;92.45;98221.97;7203396;40;20375;31
2023/10/23 21:59:38;;;;;;;9.73;6.67;;;;;;;12.45;92.58;98210.06;7197975;40;20281;31
2023/10/23 22:10:17;;;;;;;10.27;7.40;;;;;;;12.20;92.65;98191.69;7217190;40;20259;31
2023/10/23 22:15:37;;;;;;;9.80;6.15;;;;;;;12.12;93.47;98202.66;7261961;40;20276;31
2023/10/23 22:26:15;;;;;;;7.92;6.46;;;;;;;12.16;92.33;98216.59;7336903;39;20278;31
2023/10/23 22:36:39;;;;;;;10.85;6.70;;;;;;;12.20;92.34;98225.97;7321600;39;20261;31
2023/10/23 22:42:15;;;;;;;10.83;7.73;;;;;;;12.17;92.80;98221.81;7337627;39;20375;31
2023/10/23 22:47:50;;;;;;;9.07;7.00;;;;;;;12.14;93.41;98211.41;7271999;39;20240;31
2023/10/23 22:53:22;;;;;;;8.07;6.80;;;;;;;12.14;92.54;98213.28;7279278;40;20249;31
2023/10/23 22:58:55;;;;;;;10.10;7.30;;;;;;;12.13;92.76;98209.72;7266069;39;20284;31
2023/10/23 23:04:30;;;;;;;9.80;8.00;;;;;;;12.15;93.41;98213.06;7238737;40;20512;31
2023/10/23 23:10:06;;;;;;;10.43;8.20;;;;;;;12.20;93.18;98207.06;7169752;40;20320;31
2023/10/23 23:15:39;;;;;;;10.25;7.20;;;;;;;12.28;93.50;98195.25;7141554;40;20248;31
2023/10/23 23:21:15;;;;;;;7.15;5.80;;;;;;;12.40;94.38;98190.94;7155501;40;20246;31
2023/10/23 23:26:35;;;;;;;5.23;4.73;;;;;;;12.51;94.42;98184.91;7234445;40;20343;31
2023/10/23 23:32:09;;;;;;;7.00;4.70;;;;;;;12.59;94.07;98187.47;7226256;40;21525;31
2023/10/23 23:42:33;;;;;;;8.40;5.36;;;;;;;12.65;95.13;98197.44;7218090;40;20351;31
2023/10/23 23:48:07;;;;;;;7.43;5.00;;;;;;;12.64;95.61;98229.03;7294916;39;20267;31
2023/10/23 23:53:27;;;;;;;7.17;5.27;;;;;;;12.65;96.53;98227.19;7276352;40;20796;31
2023/10/23 23:58:47;;;;;;;6.67;5.40;;;;;;;12.66;96.56;98209.94;6903364;40;21210;31
